createdAt,value
2023-08-23T00:00:42.194Z,53.29
2023-08-23T00:05:44.213Z,54.68
2023-08-23T00:10:45.732Z,54.26
2023-08-23T00:15:47.241Z,54.77
2023-08-23T00:20:48.764Z,54.39
2023-08-23T00:25:50.266Z,54.68
2023-08-23T00:30:55.378Z,54.76
2023-08-23T00:35:57.064Z,54.87
2023-08-23T00:40:58.575Z,54.02
2023-08-23T00:46:00.246Z,54.54
2023-08-23T00:51:01.836Z,55.38
2023-08-23T00:56:03.419Z,54.81
2023-08-23T01:01:04.960Z,53.97
2023-08-23T01:06:47.361Z,54.60
2023-08-23T01:12:12.544Z,54.54
2023-08-23T01:17:14.709Z,55.06
2023-08-23T01:22:24.504Z,54.00
2023-08-23T01:27:27.523Z,54.53
2023-08-23T01:32:49.878Z,54.44
2023-08-23T01:37:52.149Z,55.03
2023-08-23T01:42:53.645Z,54.74
2023-08-23T01:47:55.332Z,55.23
2023-08-23T01:52:56.990Z,54.92
2023-08-23T01:57:59.067Z,54.97
2023-08-23T02:03:00.697Z,54.86
2023-08-23T02:08:02.300Z,55.46
2023-08-23T02:13:06.334Z,55.23
2023-08-23T02:18:07.891Z,55.07
2023-08-23T02:23:09.434Z,54.35
2023-08-23T02:28:10.985Z,54.61
2023-08-23T02:33:12.502Z,54.63
2023-08-23T02:38:14.383Z,54.67
2023-08-23T02:43:15.900Z,55.49
2023-08-23T02:48:17.487Z,55.59
2023-08-23T02:53:19.030Z,55.36
2023-08-23T02:58:20.613Z,55.54
2023-08-23T03:03:22.230Z,55.31
2023-08-23T03:08:24.365Z,55.17
2023-08-23T03:13:25.896Z,55.66
2023-08-23T03:18:27.570Z,55.58
2023-08-23T03:23:29.119Z,55.80
2023-08-23T03:28:30.711Z,56.38
2023-08-23T03:33:32.293Z,56.72
2023-08-23T03:38:33.792Z,55.64
2023-08-23T03:43:35.745Z,55.55
2023-08-23T03:48:37.133Z,55.18
2023-08-23T03:53:38.507Z,55.17
2023-08-23T03:58:40.017Z,56.11
2023-08-23T04:03:41.627Z,55.68
2023-08-23T04:08:43.269Z,55.09
2023-08-23T04:13:44.787Z,55.49
2023-08-23T04:18:46.290Z,55.69
2023-08-23T04:23:47.830Z,55.26
2023-08-23T04:28:49.361Z,55.68
2023-08-23T04:33:50.876Z,56.62
2023-08-23T04:38:52.375Z,56.49
2023-08-23T04:43:53.874Z,56.51
2023-08-23T04:48:55.367Z,55.80
2023-08-23T04:53:56.867Z,55.56
2023-08-23T04:58:58.386Z,55.50
2023-08-23T05:04:00.101Z,55.47
2023-08-23T05:09:01.644Z,55.18
2023-08-23T05:14:03.442Z,55.57
2023-08-23T05:19:04.977Z,55.25
2023-08-23T05:24:06.583Z,55.09
2023-08-23T05:29:08.120Z,55.11
2023-08-23T05:34:09.698Z,54.95
2023-08-23T05:39:11.300Z,54.78
2023-08-23T05:44:12.869Z,54.80
2023-08-23T05:49:14.451Z,54.65
2023-08-23T05:54:15.967Z,54.65
2023-08-23T05:59:17.465Z,54.72
2023-08-23T06:04:19.215Z,54.97
2023-08-23T06:09:20.743Z,55.53
2023-08-23T06:14:22.983Z,55.87
2023-08-23T06:19:24.505Z,55.88
2023-08-23T06:24:26.003Z,55.87
2023-08-23T06:29:27.528Z,55.91
2023-08-23T06:34:29.038Z,55.87
2023-08-23T06:39:34.430Z,55.38
2023-08-23T06:44:36.475Z,55.42
2023-08-23T06:49:38.019Z,55.53
2023-08-23T06:54:39.510Z,55.52
2023-08-23T06:59:41.066Z,55.50
2023-08-23T07:04:42.559Z,55.18
2023-08-23T07:09:44.055Z,55.61
2023-08-23T07:14:47.878Z,55.43
2023-08-23T07:19:51.403Z,54.49
2023-08-23T07:24:52.916Z,54.14
2023-08-23T07:29:54.532Z,54.04
2023-08-23T07:34:56.040Z,54.39
2023-08-23T07:39:57.653Z,54.17
2023-08-23T07:44:59.305Z,54.09
2023-08-23T07:50:02.367Z,53.59
2023-08-23T07:55:06.222Z,53.30
2023-08-23T08:00:09.420Z,52.76
2023-08-23T08:05:11.104Z,52.87
2023-08-23T08:10:12.705Z,52.56
2023-08-23T08:15:14.292Z,52.25
2023-08-23T08:20:15.815Z,52.04
2023-08-23T08:25:17.630Z,51.86
2023-08-23T08:30:19.323Z,52.43
2023-08-23T08:35:21.595Z,53.02
2023-08-23T08:40:23.364Z,52.80
2023-08-23T08:45:24.982Z,53.38
2023-08-23T08:50:27.283Z,53.17
2023-08-23T08:55:29.696Z,53.19
2023-08-23T09:00:31.677Z,53.44
2023-08-23T09:05:33.401Z,53.86
2023-08-23T09:10:34.937Z,53.82
2023-08-23T09:28:23.134Z,52.65
2023-08-23T09:33:25.174Z,52.77
2023-08-23T09:38:26.906Z,52.43
2023-08-23T09:43:28.274Z,52.03
2023-08-23T09:48:29.821Z,52.23
2023-08-23T09:53:32.969Z,52.58
2023-08-23T09:58:34.477Z,51.61
2023-08-23T10:03:35.860Z,54.49
2023-08-23T10:08:37.506Z,51.59
2023-08-23T10:13:39.075Z,51.71
2023-08-23T10:18:40.591Z,52.21
2023-08-23T10:23:42.240Z,52.02
2023-08-23T10:28:54.192Z,51.28
2023-08-23T10:33:56.914Z,52.41
2023-08-23T10:38:58.554Z,51.81
2023-08-23T10:44:00.840Z,51.54
2023-08-23T10:49:02.382Z,50.93
2023-08-23T10:54:03.755Z,51.08
2023-08-23T10:59:07.659Z,52.05
2023-08-23T11:04:09.246Z,50.70
2023-08-23T11:09:10.903Z,49.30
2023-08-23T11:14:12.406Z,48.88
2023-08-23T11:19:13.773Z,50.52
2023-08-23T11:24:15.287Z,49.51
2023-08-23T11:29:16.672Z,50.20
2023-08-23T11:34:18.732Z,50.85
2023-08-23T11:39:20.229Z,50.24
2023-08-23T11:44:21.751Z,50.08
2023-08-23T11:49:23.933Z,50.49
2023-08-23T11:54:25.442Z,49.26
2023-08-23T11:59:27.208Z,48.76
2023-08-23T12:04:28.756Z,47.25
2023-08-23T12:09:30.259Z,46.48
2023-08-23T12:14:31.781Z,46.72
2023-08-23T12:19:37.276Z,46.02
2023-08-23T12:24:39.181Z,44.34
2023-08-23T12:29:42.379Z,44.65
2023-08-23T12:34:43.878Z,45.01
2023-08-23T12:39:45.389Z,44.51
2023-08-23T12:44:46.898Z,44.43
2023-08-23T12:49:48.882Z,44.97
2023-08-23T12:54:50.531Z,44.63
2023-08-23T12:59:52.067Z,44.33
2023-08-23T13:04:53.574Z,44.91
2023-08-23T13:09:55.118Z,45.07
2023-08-23T13:14:56.792Z,45.41
2023-08-23T13:19:58.304Z,44.43
2023-08-23T13:24:59.855Z,45.05
2023-08-23T13:30:01.369Z,43.70
2023-08-23T13:35:02.889Z,44.50
2023-08-23T13:40:07.182Z,44.17
2023-08-23T13:45:08.963Z,44.32
2023-08-23T13:50:10.618Z,44.27
2023-08-23T13:55:12.329Z,43.91
2023-08-23T14:00:14.112Z,44.35
2023-08-23T14:05:15.720Z,44.72
2023-08-23T14:10:17.307Z,45.24
2023-08-23T14:15:18.868Z,45.94
2023-08-23T14:20:20.373Z,47.77
2023-08-23T14:25:21.734Z,47.15
2023-08-23T14:30:23.286Z,47.91
2023-08-23T14:35:24.933Z,46.68
2023-08-23T14:40:26.299Z,47.40
2023-08-23T14:45:27.802Z,47.38
2023-08-23T14:50:29.479Z,46.05
2023-08-23T14:55:31.010Z,45.76
2023-08-23T15:00:34.167Z,43.36
2023-08-23T15:05:37.552Z,42.68
2023-08-23T15:10:39.134Z,41.72
2023-08-23T15:15:41.706Z,42.96
2023-08-23T15:20:43.521Z,43.28
2023-08-23T15:25:45.734Z,43.74
2023-08-23T15:30:47.260Z,44.34
2023-08-23T15:35:48.691Z,44.92
2023-08-23T15:40:50.197Z,45.06
2023-08-23T15:45:54.340Z,45.21
2023-08-23T15:50:55.904Z,45.10
2023-08-23T15:55:58.032Z,45.10
2023-08-23T16:00:59.538Z,45.11
2023-08-23T16:06:01.096Z,45.57
2023-08-23T16:11:02.502Z,45.79
2023-08-23T16:16:04.129Z,45.88
2023-08-23T16:21:05.544Z,46.60
2023-08-23T16:26:09.563Z,47.06
2023-08-23T16:31:11.148Z,47.07
2023-08-23T16:36:12.740Z,47.90
2023-08-23T16:41:14.271Z,47.78
2023-08-23T16:46:15.787Z,48.41
2023-08-23T16:51:17.340Z,48.42
2023-08-23T16:56:18.857Z,48.41
2023-08-23T17:01:20.403Z,48.89
2023-08-23T17:06:21.967Z,48.77
2023-08-23T17:11:23.479Z,48.92
2023-08-23T17:16:27.926Z,48.55
2023-08-23T17:21:29.880Z,49.21
2023-08-23T17:26:31.396Z,49.67
2023-08-23T17:31:33.330Z,50.73
2023-08-23T17:36:34.889Z,50.91
2023-08-23T17:41:36.376Z,50.69
2023-08-23T17:46:38.970Z,50.16
2023-08-23T17:51:40.635Z,50.17
2023-08-23T17:56:43.177Z,51.41
2023-08-23T18:01:45.543Z,51.10
2023-08-23T18:06:47.033Z,50.08
2023-08-23T18:11:48.595Z,49.58
2023-08-23T18:16:50.143Z,50.53
2023-08-23T18:21:51.677Z,51.09
2023-08-23T18:26:53.205Z,50.60
2023-08-23T18:31:54.734Z,50.69
2023-08-23T18:36:56.249Z,51.01
2023-08-23T18:41:57.761Z,50.90
2023-08-23T18:46:59.300Z,51.20
2023-08-23T18:52:00.828Z,52.04
2023-08-23T18:57:03.569Z,51.55
2023-08-23T19:02:06.304Z,51.67
2023-08-23T19:07:08.158Z,52.91
2023-08-23T19:12:11.533Z,52.30
2023-08-23T19:17:13.133Z,52.88
2023-08-23T19:22:14.828Z,53.32
2023-08-23T19:27:16.332Z,52.86
2023-08-23T19:32:17.843Z,53.24
2023-08-23T19:37:19.353Z,52.79
2023-08-23T19:42:21.592Z,53.47
2023-08-23T19:47:23.120Z,52.83
2023-08-23T19:52:24.875Z,53.13
2023-08-23T19:57:30.425Z,53.55
2023-08-23T20:02:32.069Z,52.70
2023-08-23T20:07:34.927Z,53.60
2023-08-23T20:12:37.258Z,52.71
2023-08-23T20:17:38.964Z,52.36
2023-08-23T20:22:40.475Z,52.81
2023-08-23T20:27:42.016Z,52.09
2023-08-23T20:32:43.670Z,52.43
2023-08-23T20:37:46.019Z,52.15
2023-08-23T20:42:47.637Z,52.66
2023-08-23T20:47:49.382Z,51.80
2023-08-23T20:52:52.595Z,52.30
2023-08-23T20:57:54.318Z,52.21
2023-08-23T21:02:55.850Z,51.89
2023-08-23T21:07:57.445Z,51.71
2023-08-23T21:12:58.967Z,52.34
2023-08-23T21:18:00.533Z,52.94
2023-08-23T21:23:02.126Z,52.29
2023-08-23T21:28:03.839Z,52.02
2023-08-23T21:33:05.608Z,51.86
2023-08-23T21:38:07.337Z,52.50
2023-08-23T21:43:09.757Z,51.92
2023-08-23T21:48:11.331Z,51.89
2023-08-23T21:53:12.885Z,51.84
2023-08-23T21:58:14.416Z,51.80
2023-08-23T22:03:15.980Z,51.64
2023-08-23T22:08:18.164Z,52.32
2023-08-23T22:13:19.689Z,52.11
2023-08-23T22:18:21.189Z,51.85
2023-08-23T22:23:22.951Z,51.03
2023-08-23T22:28:25.128Z,51.25
2023-08-23T22:33:27.428Z,51.27
2023-08-23T22:38:29.534Z,51.25
2023-08-23T22:43:31.051Z,50.91
2023-08-23T22:48:33.187Z,51.91
2023-08-23T22:53:35.194Z,51.30
2023-08-23T22:58:36.698Z,50.95
2023-08-23T23:03:38.302Z,51.84
2023-08-23T23:08:40.038Z,51.25
2023-08-23T23:13:41.612Z,51.37
2023-08-23T23:18:43.167Z,50.96
2023-08-23T23:23:44.670Z,51.06
2023-08-23T23:28:46.207Z,50.97
2023-08-23T23:33:48.218Z,51.72
2023-08-23T23:38:49.888Z,51.35
2023-08-23T23:43:51.397Z,51.75
2023-08-23T23:48:52.930Z,51.16
2023-08-23T23:53:54.453Z,51.14
2023-08-23T23:58:55.969Z,51.71
